Time;durP1;ratioP1;P1;durP2;ratioP2;P2;SDS_P1;SDS_P2;PMS_P1;PMS_P2;Temp;Humidity;BMP_temperature;BMP_pressure;BME280_temperature;BME280_humidity;BME280_pressure;Samples;Min_cycle;Max_cycle;Signal;HPM_P1;HPM_P2
2023/10/22 00:00:51;;;;;;;;;;;;;;;10.34;100.00;99648.45;107396;280;106221;-56
2023/10/22 00:03:51;;;;;;;;;;;;;;;10.37;100.00;99642.67;107353;280;112665;-52
2023/10/22 00:06:27;;;;;;;;;;;;;;;10.35;100.00;99643.84;107423;280;96982;-52
2023/10/22 00:09:04;;;;;;;;;;;;;;;10.35;100.00;99647.70;107397;280;96464;-57
2023/10/22 00:11:40;;;;;;;;;;;;;;;10.34;100.00;99647.16;107388;280;121829;-56
2023/10/22 00:14:17;;;;;;;;;;;;;;;10.34;100.00;99650.08;107377;280;104245;-53
2023/10/22 00:16:54;;;;;;;;;;;;;;;10.36;100.00;99655.98;107312;281;114957;-53
2023/10/22 00:19:28;;;;;;;;;;;;;;;10.34;100.00;99659.55;107342;281;96837;-57
2023/10/22 00:22:08;;;;;;;;;;;;;;;10.32;100.00;99655.39;107360;281;95790;-57
2023/10/22 00:24:46;;;;;;;;;;;;;;;10.34;100.00;99651.73;107400;281;120665;-55
2023/10/22 00:27:25;;;;;;;;;;;;;;;10.35;100.00;99650.77;107330;281;105398;-56
2023/10/22 00:29:58;;;;;;;;;;;;;;;10.37;100.00;99648.62;107350;281;114835;-52
2023/10/22 00:32:39;;;;;;;;;;;;;;;10.36;100.00;99649.90;107410;281;97752;-56
2023/10/22 00:35:16;;;;;;;;;;;;;;;10.37;100.00;99647.13;107324;281;97694;-54
2023/10/22 00:37:53;;;;;;;;;;;;;;;10.35;100.00;99641.89;107388;281;121792;-53
2023/10/22 00:40:32;;;;;;;;;;;;;;;10.32;100.00;99641.73;107457;281;105460;-53
2023/10/22 00:43:11;;;;;;;;;;;;;;;10.30;100.00;99637.32;107404;281;115268;-57
2023/10/22 00:45:45;;;;;;;;;;;;;;;10.30;100.00;99634.79;107372;281;96685;-57
2023/10/22 00:48:18;;;;;;;;;;;;;;;10.28;100.00;99628.80;107446;281;97860;-53
2023/10/22 00:50:53;;;;;;;;;;;;;;;10.26;100.00;99624.48;107386;281;120625;-53
2023/10/22 00:53:29;;;;;;;;;;;;;;;10.22;100.00;99625.77;107388;281;104038;-53
2023/10/22 00:56:08;;;;;;;;;;;;;;;10.18;100.00;99621.08;107346;281;113877;-53
2023/10/22 00:58:46;;;;;;;;;;;;;;;10.15;100.00;99620.55;107380;281;96196;-57
2023/10/22 01:01:27;;;;;;;;;;;;;;;10.10;100.00;99621.07;107352;281;97324;-57
2023/10/22 01:04:04;;;;;;;;;;;;;;;10.12;100.00;99620.81;107356;281;121636;-51
2023/10/22 01:06:39;;;;;;;;;;;;;;;10.12;100.00;99614.52;107336;281;105833;-52
2023/10/22 01:09:16;;;;;;;;;;;;;;;10.13;100.00;99615.52;107374;281;114766;-52
2023/10/22 01:12:03;;;;;;;;;;;;;;;10.16;100.00;99610.56;107388;281;97304;-53
2023/10/22 01:14:38;;;;;;;;;;;;;;;10.15;100.00;99604.41;107388;280;97121;-53
2023/10/22 01:17:11;;;;;;;;;;;;;;;10.14;100.00;99598.83;107384;280;119705;-52
2023/10/22 01:19:45;;;;;;;;;;;;;;;10.14;100.00;99594.07;107382;280;104983;-56
2023/10/22 01:22:18;;;;;;;;;;;;;;;10.14;100.00;99590.04;107355;280;113288;-55
2023/10/22 01:24:51;;;;;;;;;;;;;;;10.15;100.00;99587.19;107419;280;96221;-53
2023/10/22 01:27:35;;;;;;;;;;;;;;;10.14;100.00;99580.45;107390;280;97601;-53
2023/10/22 01:30:15;;;;;;;;;;;;;;;10.13;100.00;99576.49;107401;280;122066;-53
2023/10/22 01:32:52;;;;;;;;;;;;;;;10.18;100.00;99574.69;107448;280;105727;-57
2023/10/22 01:35:31;;;;;;;;;;;;;;;10.21;100.00;99569.84;107336;280;112802;-57
2023/10/22 01:38:11;;;;;;;;;;;;;;;10.19;100.00;99565.38;107426;280;95683;-57
2023/10/22 01:40:43;;;;;;;;;;;;;;;10.19;100.00;99557.79;107406;280;97691;-57
2023/10/22 01:43:19;;;;;;;;;;;;;;;10.20;100.00;99557.63;107392;280;120345;-55
2023/10/22 01:45:55;;;;;;;;;;;;;;;10.18;100.00;99553.34;107254;276;104752;-57
2023/10/22 01:48:32;;;;;;;;;;;;;;;10.21;100.00;99548.77;107299;280;113072;-55
2023/10/22 01:51:09;;;;;;;;;;;;;;;10.23;100.00;99547.31;107272;280;96497;-54
2023/10/22 01:53:52;;;;;;;;;;;;;;;10.24;100.00;99548.08;107256;280;97625;-53
2023/10/22 01:56:31;;;;;;;;;;;;;;;10.31;100.00;99547.23;107507;280;120927;-52
2023/10/22 01:59:06;;;;;;;;;;;;;;;10.29;100.00;99552.09;107387;280;105339;-56
2023/10/22 02:01:42;;;;;;;;;;;;;;;10.33;100.00;99553.17;107336;280;113166;-57
2023/10/22 02:04:17;;;;;;;;;;;;;;;10.33;100.00;99555.13;107354;280;96538;-55
2023/10/22 02:06:54;;;;;;;;;;;;;;;10.36;100.00;99557.58;107369;280;97904;-55
2023/10/22 02:09:29;;;;;;;;;;;;;;;10.40;100.00;99559.74;107361;280;120952;-52
2023/10/22 02:12:01;;;;;;;;;;;;;;;10.47;100.00;99552.16;107320;280;106254;-52
2023/10/22 02:14:36;;;;;;;;;;;;;;;10.46;100.00;99553.00;107435;280;113777;-56
2023/10/22 02:17:14;;;;;;;;;;;;;;;10.45;100.00;99557.66;107349;280;97246;-57
2023/10/22 02:19:51;;;;;;;;;;;;;;;10.46;100.00;99556.41;107402;280;97210;-56
2023/10/22 02:22:38;;;;;;;;;;;;;;;10.45;100.00;99552.63;107371;280;120988;-56
2023/10/22 02:25:16;;;;;;;;;;;;;;;10.40;100.00;99547.31;107417;280;105039;-51
2023/10/22 02:27:51;;;;;;;;;;;;;;;10.39;100.00;99538.47;107343;280;114919;-51
2023/10/22 02:30:29;;;;;;;;;;;;;;;10.39;100.00;99533.73;107385;280;96469;-52
2023/10/22 02:33:03;;;;;;;;;;;;;;;10.38;100.00;99531.04;107357;280;96414;-52
2023/10/22 02:35:41;;;;;;;;;;;;;;;10.38;100.00;99530.20;107350;280;120211;-52
2023/10/22 02:38:19;;;;;;;;;;;;;;;10.43;100.00;99536.52;107389;280;104797;-52
2023/10/22 02:40:54;;;;;;;;;;;;;;;10.48;100.00;99538.38;107347;280;114859;-52
2023/10/22 02:43:36;;;;;;;;;;;;;;;10.47;100.00;99532.77;107350;280;96290;-52
2023/10/22 02:46:12;;;;;;;;;;;;;;;10.41;100.00;99529.45;107406;280;97271;-50
2023/10/22 02:48:49;;;;;;;;;;;;;;;10.39;100.00;99523.52;107058;280;465880;-52
2023/10/22 02:51:28;;;;;;;;;;;;;;;10.44;100.00;99535.59;107342;280;104258;-53
2023/10/22 02:54:06;;;;;;;;;;;;;;;10.46;100.00;99537.21;107435;280;114718;-53
2023/10/22 02:56:42;;;;;;;;;;;;;;;10.51;100.00;99540.24;107463;280;95514;-52
2023/10/22 02:59:19;;;;;;;;;;;;;;;10.52;100.00;99547.89;107413;280;97592;-52
2023/10/22 03:02:02;;;;;;;;;;;;;;;10.53;100.00;99551.78;107435;280;121411;-52
2023/10/22 03:04:35;;;;;;;;;;;;;;;10.53;100.00;99553.70;107411;280;105090;-56
2023/10/22 03:07:11;;;;;;;;;;;;;;;10.55;100.00;99562.05;107348;280;114979;-56
2023/10/22 03:09:48;;;;;;;;;;;;;;;10.58;100.00;99560.34;107362;280;95195;-58
2023/10/22 03:12:24;;;;;;;;;;;;;;;10.60;100.00;99574.39;107280;280;97362;-58
2023/10/22 03:15:05;;;;;;;;;;;;;;;10.69;100.00;99582.23;107359;280;121158;-54
2023/10/22 03:17:41;;;;;;;;;;;;;;;10.72;100.00;99582.66;107426;280;105045;-54
2023/10/22 03:20:17;;;;;;;;;;;;;;;10.75;100.00;99583.49;107371;280;114153;-54
2023/10/22 03:22:56;;;;;;;;;;;;;;;10.81;100.00;99579.34;107441;280;95662;-54
2023/10/22 03:25:39;;;;;;;;;;;;;;;10.84;100.00;99587.02;107398;280;95918;-54
2023/10/22 03:28:17;;;;;;;;;;;;;;;10.77;100.00;99586.92;107438;280;120153;-54
2023/10/22 03:30:58;;;;;;;;;;;;;;;10.79;100.00;99586.29;107355;280;106313;-54
2023/10/22 03:33:30;;;;;;;;;;;;;;;10.81;100.00;99588.33;107380;280;113490;-54
2023/10/22 03:36:09;;;;;;;;;;;;;;;10.83;100.00;99577.10;107298;280;96633;-54
2023/10/22 03:38:45;;;;;;;;;;;;;;;10.84;100.00;99584.45;107394;280;97594;-55
2023/10/22 03:41:25;;;;;;;;;;;;;;;10.85;100.00;99584.95;107335;280;120971;-55
2023/10/22 03:44:05;;;;;;;;;;;;;;;10.86;100.00;99584.73;107366;280;105259;-54
2023/10/22 03:46:40;;;;;;;;;;;;;;;10.83;100.00;99573.81;107356;280;113264;-53
2023/10/22 03:49:19;;;;;;;;;;;;;;;10.81;100.00;99555.39;107347;280;95513;-54
2023/10/22 03:51:57;;;;;;;;;;;;;;;10.80;100.00;99545.71;107352;280;98294;-53
2023/10/22 03:54:35;;;;;;;;;;;;;;;10.80;100.00;99543.39;107397;280;119584;-54
2023/10/22 03:57:15;;;;;;;;;;;;;;;10.83;100.00;99533.53;107342;280;105173;-54
2023/10/22 03:59:48;;;;;;;;;;;;;;;10.83;100.00;99528.08;107374;280;114183;-54
2023/10/22 04:02:23;;;;;;;;;;;;;;;10.79;100.00;99528.55;107315;280;96519;-53
2023/10/22 04:05:03;;;;;;;;;;;;;;;10.83;100.00;99536.02;107362;280;97323;-57
2023/10/22 04:07:43;;;;;;;;;;;;;;;10.83;100.00;99528.29;107393;280;119704;-53
2023/10/22 04:10:28;;;;;;;;;;;;;;;10.82;100.00;99520.06;107362;280;106112;-53
2023/10/22 04:13:05;;;;;;;;;;;;;;;10.84;100.00;99524.38;107380;280;114462;-55
2023/10/22 04:15:39;;;;;;;;;;;;;;;10.86;100.00;99518.98;107391;280;96933;-53
2023/10/22 04:18:16;;;;;;;;;;;;;;;10.87;100.00;99513.66;107435;281;96872;-55
2023/10/22 04:20:51;;;;;;;;;;;;;;;10.87;100.00;99509.12;107323;281;121243;-54
2023/10/22 04:23:29;;;;;;;;;;;;;;;10.86;100.00;99494.69;107358;281;103531;-57
2023/10/22 04:26:01;;;;;;;;;;;;;;;10.80;100.00;99493.14;107360;281;114602;-57
2023/10/22 04:28:35;;;;;;;;;;;;;;;10.82;100.00;99497.95;107351;281;94517;-57
2023/10/22 04:31:17;;;;;;;;;;;;;;;10.91;100.00;99498.59;107359;281;97594;-56
2023/10/22 04:34:01;;;;;;;;;;;;;;;10.96;100.00;99488.92;107353;281;121621;-54
2023/10/22 04:36:38;;;;;;;;;;;;;;;10.96;100.00;99486.27;107351;281;105860;-55
2023/10/22 04:39:20;;;;;;;;;;;;;;;10.95;100.00;99482.80;107353;280;114462;-53
2023/10/22 04:41:57;;;;;;;;;;;;;;;11.01;100.00;99485.36;107330;281;96115;-53
2023/10/22 04:44:29;;;;;;;;;;;;;;;11.03;100.00;99484.70;107398;281;97554;-55
2023/10/22 04:47:08;;;;;;;;;;;;;;;11.05;100.00;99478.23;107342;281;120902;-54
2023/10/22 04:49:47;;;;;;;;;;;;;;;11.06;100.00;99471.05;107402;281;103912;-53
2023/10/22 04:52:30;;;;;;;;;;;;;;;11.06;100.00;99472.05;107373;281;113020;-53
2023/10/22 04:55:05;;;;;;;;;;;;;;;11.05;100.00;99468.84;107398;281;96612;-53
2023/10/22 04:57:38;;;;;;;;;;;;;;;11.07;100.00;99474.41;107413;281;97526;-55
2023/10/22 05:00:13;;;;;;;;;;;;;;;11.04;100.00;99473.92;107411;281;119773;-54
2023/10/22 05:02:50;;;;;;;;;;;;;;;11.08;100.00;99469.05;107411;281;106137;-54
2023/10/22 05:05:28;;;;;;;;;;;;;;;11.09;100.00;99474.23;107371;281;114619;-54
2023/10/22 05:08:05;;;;;;;;;;;;;;;11.09;100.00;99470.28;107409;281;96650;-54
2023/10/22 05:10:41;;;;;;;;;;;;;;;11.09;100.00;99465.05;107362;281;98146;-54
2023/10/22 05:13:22;;;;;;;;;;;;;;;11.09;100.00;99464.55;107387;281;120119;-59
2023/10/22 05:15:56;;;;;;;;;;;;;;;11.11;100.00;99462.95;107357;280;104841;-56
2023/10/22 05:18:29;;;;;;;;;;;;;;;11.18;100.00;99459.46;107368;280;114193;-54
2023/10/22 05:21:07;;;;;;;;;;;;;;;11.22;100.00;99459.48;107344;280;95734;-53
2023/10/22 05:23:45;;;;;;;;;;;;;;;11.22;100.00;99454.36;107371;280;95858;-59
2023/10/22 05:26:20;;;;;;;;;;;;;;;11.22;100.00;99455.61;107341;280;120073;-59
2023/10/22 05:28:56;;;;;;;;;;;;;;;11.24;100.00;99453.07;107348;280;105645;-57
2023/10/22 05:31:31;;;;;;;;;;;;;;;11.26;100.00;99456.39;107352;280;114719;-56
2023/10/22 05:34:05;;;;;;;;;;;;;;;11.29;100.00;99459.98;107367;280;96477;-53
2023/10/22 05:36:45;;;;;;;;;;;;;;;11.29;100.00;99459.20;107374;280;97890;-53
2023/10/22 05:39:20;;;;;;;;;;;;;;;11.34;100.00;99461.36;107385;280;120617;-57
2023/10/22 05:41:54;;;;;;;;;;;;;;;11.38;100.00;99458.43;107343;280;104359;-57
2023/10/22 05:44:36;;;;;;;;;;;;;;;11.45;100.00;99457.93;107426;280;114439;-59
2023/10/22 05:47:12;;;;;;;;;;;;;;;11.46;100.00;99454.82;107392;280;96902;-59
2023/10/22 05:49:49;;;;;;;;;;;;;;;11.49;100.00;99443.39;107389;280;96709;-53
2023/10/22 05:52:26;;;;;;;;;;;;;;;11.51;100.00;99445.45;107391;280;120264;-54
2023/10/22 05:55:02;;;;;;;;;;;;;;;11.52;100.00;99444.33;107404;280;105897;-53
2023/10/22 05:57:42;;;;;;;;;;;;;;;11.54;100.00;99441.19;107395;280;114677;-57
2023/10/22 06:00:15;;;;;;;;;;;;;;;11.53;100.00;99436.12;107341;280;96380;-57
2023/10/22 06:02:55;;;;;;;;;;;;;;;11.54;100.00;99432.24;107405;280;97016;-59
2023/10/22 06:05:31;;;;;;;;;;;;;;;11.55;100.00;99426.20;107334;280;120705;-59
2023/10/22 06:08:08;;;;;;;;;;;;;;;11.54;100.00;99422.41;107399;280;105897;-53
2023/10/22 06:10:46;;;;;;;;;;;;;;;11.53;100.00;99420.93;107341;280;114717;-53
2023/10/22 06:13:27;;;;;;;;;;;;;;;11.51;100.00;99422.89;107394;280;96175;-57
2023/10/22 06:16:02;;;;;;;;;;;;;;;11.50;100.00;99416.29;107384;280;97509;-58
2023/10/22 06:18:38;;;;;;;;;;;;;;;11.48;100.00;99409.20;107405;280;119096;-53
2023/10/22 06:21:18;;;;;;;;;;;;;;;11.44;100.00;99410.17;107382;280;105200;-53
2023/10/22 06:23:53;;;;;;;;;;;;;;;11.49;100.00;99412.88;107436;280;114213;-54
2023/10/22 06:26:30;;;;;;;;;;;;;;;11.51;100.00;99417.29;107370;280;95375;-54
2023/10/22 06:29:05;;;;;;;;;;;;;;;11.55;100.00;99409.71;107440;280;97442;-58
2023/10/22 06:31:42;;;;;;;;;;;;;;;11.58;100.00;99408.33;107415;280;121387;-59
2023/10/22 06:34:17;;;;;;;;;;;;;;;11.60;100.00;99395.19;107461;280;106387;-54
2023/10/22 06:36:56;;;;;;;;;;;;;;;11.63;100.00;99393.17;107354;280;115588;-54
2023/10/22 06:39:33;;;;;;;;;;;;;;;11.61;100.00;99394.20;107365;280;96600;-54
2023/10/22 06:42:09;;;;;;;;;;;;;;;11.59;100.00;99386.85;107351;280;97177;-54
2023/10/22 06:44:47;;;;;;;;;;;;;;;11.63;100.00;99385.19;107341;280;120360;-58
2023/10/22 06:47:19;;;;;;;;;;;;;;;11.67;100.00;99378.91;107360;280;106063;-58
2023/10/22 06:49:56;;;;;;;;;;;;;;;11.69;100.00;99379.67;107347;280;112604;-53
2023/10/22 06:52:34;;;;;;;;;;;;;;;11.72;100.00;99378.80;107383;280;96545;-57
2023/10/22 06:55:16;;;;;;;;;;;;;;;11.76;100.00;99372.20;107405;280;97320;-55
2023/10/22 06:57:51;;;;;;;;;;;;;;;11.78;100.00;99373.52;107293;280;120678;-53
2023/10/22 07:00:34;;;;;;;;;;;;;;;11.79;100.00;99367.01;107377;280;105434;-53
2023/10/22 07:03:15;;;;;;;;;;;;;;;11.81;100.00;99364.97;107378;280;115510;-54
2023/10/22 07:05:52;;;;;;;;;;;;;;;11.77;100.00;99362.36;107405;280;95800;-54
2023/10/22 07:08:29;;;;;;;;;;;;;;;11.78;100.00;99351.12;107455;280;97684;-59
2023/10/22 07:11:08;;;;;;;;;;;;;;;11.82;100.00;99345.89;107438;280;121014;-60
2023/10/22 07:13:43;;;;;;;;;;;;;;;11.86;100.00;99336.70;107375;280;103722;-57
2023/10/22 07:16:28;;;;;;;;;;;;;;;11.84;100.00;99333.02;107352;280;113550;-59
2023/10/22 07:19:10;;;;;;;;;;;;;;;11.88;100.00;99319.19;107373;280;96561;-59
2023/10/22 07:21:48;;;;;;;;;;;;;;;11.91;100.00;99311.84;107362;280;97737;-58
2023/10/22 07:24:28;;;;;;;;;;;;;;;11.93;100.00;99301.58;107387;280;120396;-57
2023/10/22 07:27:05;;;;;;;;;;;;;;;11.95;100.00;99296.13;107343;280;106041;-58
2023/10/22 07:29:42;;;;;;;;;;;;;;;11.95;100.00;99297.61;107376;280;113871;-58
2023/10/22 07:32:20;;;;;;;;;;;;;;;11.97;100.00;99293.27;107395;280;95227;-57
2023/10/22 07:34:56;;;;;;;;;;;;;;;12.00;100.00;99287.23;107408;280;96834;-54
2023/10/22 07:37:32;;;;;;;;;;;;;;;12.02;100.00;99279.80;107363;280;120879;-58
2023/10/22 07:40:08;;;;;;;;;;;;;;;12.03;100.00;99279.62;107317;280;105696;-54
2023/10/22 07:42:41;;;;;;;;;;;;;;;12.04;100.00;99276.23;107387;280;115091;-55
2023/10/22 07:45:17;;;;;;;;;;;;;;;12.07;100.00;99279.81;107344;280;96981;-54
2023/10/22 07:47:52;;;;;;;;;;;;;;;12.06;100.00;99279.07;107414;280;97734;-58
2023/10/22 07:50:29;;;;;;;;;;;;;;;12.06;100.00;99279.34;107382;280;120599;-59
2023/10/22 07:53:05;;;;;;;;;;;;;;;12.07;100.00;99278.29;107413;280;103147;-59
2023/10/22 07:55:42;;;;;;;;;;;;;;;12.12;100.00;99280.77;107433;280;114015;-54
2023/10/22 07:58:20;;;;;;;;;;;;;;;12.11;100.00;99278.36;107362;280;95627;-54
2023/10/22 08:01:01;;;;;;;;;;;;;;;12.08;100.00;99281.58;107394;280;97697;-54
2023/10/22 08:03:39;;;;;;;;;;;;;;;12.06;100.00;99282.80;107435;280;121017;-55
2023/10/22 08:06:15;;;;;;;;;;;;;;;12.08;100.00;99280.60;107379;280;105514;-54
2023/10/22 08:08:54;;;;;;;;;;;;;;;12.10;100.00;99284.21;107399;280;113221;-53
2023/10/22 08:11:26;;;;;;;;;;;;;;;12.06;100.00;99288.00;107349;280;97529;-53
2023/10/22 08:14:09;;;;;;;;;;;;;;;12.03;100.00;99284.57;107334;280;97069;-54
2023/10/22 08:16:46;;;;;;;;;;;;;;;12.02;100.00;99282.80;107296;280;120132;-54
2023/10/22 08:19:28;;;;;;;;;;;;;;;12.02;100.00;99276.85;107363;280;104950;-55
2023/10/22 08:22:05;;;;;;;;;;;;;;;12.01;100.00;99275.82;107338;280;115340;-54
2023/10/22 08:24:39;;;;;;;;;;;;;;;12.01;100.00;99271.02;107384;280;95537;-57
2023/10/22 08:27:15;;;;;;;;;;;;;;;12.04;100.00;99265.66;107388;280;98321;-57
2023/10/22 08:29:55;;;;;;;;;;;;;;;12.02;100.00;99264.10;107337;280;120329;-53
2023/10/22 08:32:35;;;;;;;;;;;;;;;12.05;100.00;99263.19;107291;280;107671;-55
2023/10/22 08:35:10;;;;;;;;;;;;;;;12.13;100.00;99265.50;107397;280;114258;-57
2023/10/22 08:37:47;;;;;;;;;;;;;;;12.15;100.00;99264.02;107371;280;96920;-53
2023/10/22 08:40:24;;;;;;;;;;;;;;;12.12;100.00;99262.48;107344;280;97100;-53
2023/10/22 08:43:11;;;;;;;;;;;;;;;12.10;100.00;99261.33;107440;280;120199;-57
2023/10/22 08:45:50;;;;;;;;;;;;;;;12.12;100.00;99254.28;107386;280;104332;-58
2023/10/22 08:48:28;;;;;;;;;;;;;;;12.12;100.00;99252.06;107362;280;115066;-62
2023/10/22 08:51:04;;;;;;;;;;;;;;;12.17;100.00;99253.70;107369;280;96370;-55
2023/10/22 08:53:48;;;;;;;;;;;;;;;12.17;100.00;99246.30;107380;280;99210;-58
2023/10/22 08:56:28;;;;;;;;;;;;;;;12.17;100.00;99245.22;107378;280;118637;-57
2023/10/22 08:59:04;;;;;;;;;;;;;;;12.21;100.00;99250.91;107368;280;105742;-52
2023/10/22 09:01:40;;;;;;;;;;;;;;;12.21;100.00;99254.41;107330;280;114266;-53
2023/10/22 09:04:17;;;;;;;;;;;;;;;12.17;100.00;99258.50;107323;280;97607;-51
2023/10/22 09:06:56;;;;;;;;;;;;;;;12.16;100.00;99255.48;107330;280;96879;-50
2023/10/22 09:09:39;;;;;;;;;;;;;;;12.16;100.00;99253.39;107344;280;120740;-56
2023/10/22 09:12:16;;;;;;;;;;;;;;;12.14;100.00;99249.20;107352;280;105062;-56
2023/10/22 09:14:58;;;;;;;;;;;;;;;12.17;100.00;99242.38;107333;280;113281;-52
2023/10/22 09:17:36;;;;;;;;;;;;;;;12.19;100.00;99236.89;107374;280;94937;-52
2023/10/22 09:20:21;;;;;;;;;;;;;;;12.24;100.00;99237.30;107357;280;97736;-51
2023/10/22 09:23:14;;;;;;;;;;;;;;;12.24;100.00;99240.66;107381;280;120307;-56
2023/10/22 09:25:51;;;;;;;;;;;;;;;12.24;100.00;99236.99;107319;280;105795;-56
2023/10/22 09:28:30;;;;;;;;;;;;;;;12.27;100.00;99230.46;107380;280;112890;-55
2023/10/22 09:31:03;;;;;;;;;;;;;;;12.29;100.00;99227.27;107375;280;97115;-56
2023/10/22 09:33:39;;;;;;;;;;;;;;;12.34;100.00;99219.27;107409;280;96714;-53
2023/10/22 09:36:14;;;;;;;;;;;;;;;12.40;100.00;99216.14;107311;280;119410;-54
2023/10/22 09:38:51;;;;;;;;;;;;;;;12.46;100.00;99205.50;107384;280;105995;-53
2023/10/22 09:41:31;;;;;;;;;;;;;;;12.50;100.00;99204.21;107291;280;112881;-54
2023/10/22 09:44:04;;;;;;;;;;;;;;;12.56;100.00;99200.30;107365;280;96288;-61
2023/10/22 09:46:42;;;;;;;;;;;;;;;12.57;100.00;99201.79;107288;280;97620;-53
2023/10/22 09:49:16;;;;;;;;;;;;;;;12.59;100.00;99195.21;107349;273;119818;-58
2023/10/22 09:51:52;;;;;;;;;;;;;;;12.58;100.00;99199.43;107378;280;105504;-56
2023/10/22 09:54:33;;;;;;;;;;;;;;;12.57;100.00;99196.91;107347;280;114975;-52
2023/10/22 09:57:14;;;;;;;;;;;;;;;12.59;100.00;99192.90;107330;280;95315;-50
2023/10/22 09:59:49;;;;;;;;;;;;;;;12.66;100.00;99191.40;107361;280;97364;-51
2023/10/22 10:02:28;;;;;;;;;;;;;;;12.67;100.00;99188.62;107301;280;120509;-51
2023/10/22 10:05:06;;;;;;;;;;;;;;;12.67;100.00;99184.04;107321;280;104320;-57
2023/10/22 10:07:49;;;;;;;;;;;;;;;12.70;100.00;99184.63;107347;280;114071;-56
2023/10/22 10:10:30;;;;;;;;;;;;;;;12.77;100.00;99183.00;107338;280;96472;-55
2023/10/22 10:13:08;;;;;;;;;;;;;;;12.78;100.00;99180.27;107316;280;97761;-53
2023/10/22 10:15:58;;;;;;;;;;;;;;;12.78;100.00;99177.15;107332;280;120182;-53
2023/10/22 10:18:58;;;;;;;;;;;;;;;12.72;100.00;99172.25;107374;280;103220;-52
2023/10/22 10:21:53;;;;;;;;;;;;;;;12.70;100.00;99167.33;107323;280;115463;-52
2023/10/22 10:24:36;;;;;;;;;;;;;;;12.72;100.00;99168.03;107353;280;95982;-58
2023/10/22 10:27:30;;;;;;;;;;;;;;;12.69;100.00;99159.09;107357;280;97438;-58
2023/10/22 10:30:21;;;;;;;;;;;;;;;12.69;100.00;99155.12;107372;280;120888;-55
2023/10/22 10:33:02;;;;;;;;;;;;;;;12.73;100.00;99149.92;107348;280;105884;-54
2023/10/22 10:35:45;;;;;;;;;;;;;;;12.76;100.00;99147.42;107356;280;113114;-53
2023/10/22 10:38:30;;;;;;;;;;;;;;;12.82;100.00;99142.48;107399;280;97244;-58
2023/10/22 10:41:04;;;;;;;;;;;;;;;12.83;100.00;99137.92;107372;280;97634;-57
2023/10/22 10:44:09;;;;;;;;;;;;;;;12.84;100.00;99135.11;107374;280;120804;-52
2023/10/22 10:46:48;;;;;;;;;;;;;;;12.89;100.00;99136.53;107312;280;104054;-52
2023/10/22 10:49:55;;;;;;;;;;;;;;;12.92;100.00;99133.47;106925;280;466389;-52
2023/10/22 10:52:33;;;;;;;;;;;;;;;12.97;100.00;99135.50;107310;280;95559;-55
2023/10/22 10:55:30;;;;;;;;;;;;;;;13.00;100.00;99131.06;107348;280;97582;-54
2023/10/22 10:58:04;;;;;;;;;;;;;;;13.05;100.00;99128.63;107390;280;118880;-57
2023/10/22 11:00:43;;;;;;;;;;;;;;;13.04;100.00;99130.04;107350;280;103913;-57
2023/10/22 11:03:23;;;;;;;;;;;;;;;13.05;100.00;99125.02;107371;280;113876;-59
2023/10/22 11:05:57;;;;;;;;;;;;;;;13.04;100.00;99127.51;107315;280;96987;-58
2023/10/22 11:08:38;;;;;;;;;;;;;;;13.01;100.00;99128.48;107363;280;97888;-54
2023/10/22 11:11:20;;;;;;;;;;;;;;;13.03;100.00;99130.18;107343;280;120831;-53
2023/10/22 11:13:56;;;;;;;;;;;;;;;13.03;100.00;99125.26;107388;280;105882;-53
2023/10/22 11:16:32;;;;;;;;;;;;;;;13.06;100.00;99122.94;107298;280;115726;-56
2023/10/22 11:19:07;;;;;;;;;;;;;;;13.08;100.00;99123.23;107388;280;95732;-53
2023/10/22 11:21:44;;;;;;;;;;;;;;;13.13;100.00;99119.07;107330;280;98141;-53
2023/10/22 11:24:21;;;;;;;;;;;;;;;13.19;100.00;99118.86;107369;280;121220;-56
2023/10/22 11:26:54;;;;;;;;;;;;;;;13.23;100.00;99121.67;107344;280;104582;-56
2023/10/22 11:29:32;;;;;;;;;;;;;;;13.22;100.00;99121.10;107364;280;114773;-60
2023/10/22 11:32:14;;;;;;;;;;;;;;;13.23;100.00;99120.86;107381;280;97337;-60
2023/10/22 11:35:04;;;;;;;;;;;;;;;13.12;100.00;99122.20;107431;280;97479;-54
2023/10/22 11:37:43;;;;;;;;;;;;;;;13.11;100.00;99124.78;107392;280;119303;-53
2023/10/22 11:40:34;;;;;;;;;;;;;;;13.09;100.00;99123.77;107464;280;105642;-54
2023/10/22 11:43:17;;;;;;;;;;;;;;;13.02;100.00;99123.45;107397;280;113549;-54
2023/10/22 11:45:59;;;;;;;;;;;;;;;12.93;100.00;99126.39;107433;280;95817;-54
2023/10/22 11:48:37;;;;;;;;;;;;;;;12.97;100.00;99123.83;107438;280;97999;-58
2023/10/22 11:51:16;;;;;;;;;;;;;;;12.98;100.00;99123.08;107372;280;120492;-54
2023/10/22 11:53:56;;;;;;;;;;;;;;;12.94;100.00;99123.59;107399;280;104491;-54
2023/10/22 11:56:34;;;;;;;;;;;;;;;12.90;100.00;99121.82;107307;280;113433;-54
2023/10/22 11:59:15;;;;;;;;;;;;;;;12.93;100.00;99125.95;107351;280;96124;-55
2023/10/22 12:01:51;;;;;;;;;;;;;;;12.83;100.00;99124.84;107366;280;97889;-58
2023/10/22 12:04:28;;;;;;;;;;;;;;;12.78;100.00;99123.27;107363;280;119554;-57
2023/10/22 12:07:09;;;;;;;;;;;;;;;12.75;100.00;99125.37;107415;279;104500;-58
2023/10/22 12:09:45;;;;;;;;;;;;;;;12.75;100.00;99124.38;107386;279;113148;-52
2023/10/22 12:12:17;;;;;;;;;;;;;;;12.65;100.00;99122.45;107420;279;95627;-56
2023/10/22 12:15:00;;;;;;;;;;;;;;;12.64;100.00;99125.19;107477;279;96393;-52
2023/10/22 12:17:36;;;;;;;;;;;;;;;12.62;100.00;99125.85;107390;279;120782;-56
2023/10/22 12:20:16;;;;;;;;;;;;;;;12.60;100.00;99128.92;107435;279;105799;-56
2023/10/22 12:22:53;;;;;;;;;;;;;;;12.60;100.00;99127.23;107426;279;113626;-53
2023/10/22 12:25:34;;;;;;;;;;;;;;;12.63;100.00;99128.30;107405;279;97239;-53
2023/10/22 12:28:10;;;;;;;;;;;;;;;12.61;100.00;99126.37;107366;279;96530;-54
2023/10/22 12:30:52;;;;;;;;;;;;;;;12.68;100.00;99126.25;107466;279;120789;-54
2023/10/22 12:33:31;;;;;;;;;;;;;;;12.61;100.00;99128.58;107447;279;102931;-54
2023/10/22 12:36:09;;;;;;;;;;;;;;;12.63;100.00;99129.50;107437;279;113865;-55
2023/10/22 12:38:47;;;;;;;;;;;;;;;12.61;100.00;99132.59;107437;279;94310;-55
2023/10/22 12:41:28;;;;;;;;;;;;;;;12.60;100.00;99137.77;107367;279;97702;-55
2023/10/22 12:44:05;;;;;;;;;;;;;;;12.60;100.00;99137.82;107476;279;120870;-54
2023/10/22 12:46:43;;;;;;;;;;;;;;;12.57;100.00;99140.89;107418;279;105471;-54
2023/10/22 12:49:24;;;;;;;;;;;;;;;12.53;100.00;99142.25;107434;271;114905;-55
2023/10/22 12:52:03;;;;;;;;;;;;;;;12.54;100.00;99146.94;107403;279;96658;-53
2023/10/22 12:54:39;;;;;;;;;;;;;;;12.50;100.00;99145.70;107426;279;96981;-58
2023/10/22 12:57:12;;;;;;;;;;;;;;;12.56;100.00;99144.34;107456;279;120020;-58
2023/10/22 12:59:49;;;;;;;;;;;;;;;12.62;100.00;99147.69;107473;279;105889;-54
2023/10/22 13:02:33;;;;;;;;;;;;;;;12.62;100.00;99150.02;107439;279;113021;-54
2023/10/22 13:05:07;;;;;;;;;;;;;;;12.62;100.00;99147.48;107450;279;96734;-56
2023/10/22 13:07:42;;;;;;;;;;;;;;;12.59;100.00;99148.20;107523;279;97845;-56
2023/10/22 13:10:19;;;;;;;;;;;;;;;12.67;100.00;99149.11;107432;279;120038;-55
2023/10/22 13:12:56;;;;;;;;;;;;;;;12.72;100.00;99156.98;107418;279;104306;-53
2023/10/22 13:15:31;;;;;;;;;;;;;;;12.73;100.00;99152.63;107403;279;115984;-53
2023/10/22 13:18:07;;;;;;;;;;;;;;;12.79;100.00;99155.87;107437;279;97385;-52
2023/10/22 13:20:47;;;;;;;;;;;;;;;12.84;100.00;99159.24;107430;279;96239;-52
2023/10/22 13:23:22;;;;;;;;;;;;;;;12.84;100.00;99158.74;107417;279;120619;-55
2023/10/22 13:26:01;;;;;;;;;;;;;;;12.78;100.00;99160.34;107428;279;103058;-54